createdAt,value
2023-05-23T00:02:29.241Z,62.14
2023-05-23T00:05:03.944Z,62.05
2023-05-23T00:07:36.677Z,62.18
2023-05-23T00:10:10.997Z,61.91
2023-05-23T00:12:43.827Z,62.10
2023-05-23T00:15:16.991Z,62.13
2023-05-23T00:17:50.237Z,61.74
2023-05-23T00:20:23.394Z,61.66
2023-05-23T00:22:59.028Z,61.71
2023-05-23T00:25:34.977Z,61.68
2023-05-23T00:28:08.612Z,61.87
2023-05-23T00:30:41.800Z,61.85
2023-05-23T00:33:15.958Z,62.13
2023-05-23T00:35:49.089Z,62.06
2023-05-23T00:38:22.542Z,62.12
2023-05-23T00:40:55.449Z,62.05
2023-05-23T00:43:28.354Z,62.56
2023-05-23T00:46:02.281Z,62.21
2023-05-23T00:48:35.715Z,62.50
2023-05-23T00:51:09.063Z,62.84
2023-05-23T00:53:42.483Z,62.96
2023-05-23T00:56:15.424Z,62.84
2023-05-23T00:58:48.977Z,62.86
2023-05-23T01:01:22.358Z,62.97
2023-05-23T01:03:55.602Z,62.76
2023-05-23T01:06:31.020Z,62.64
2023-05-23T01:09:05.495Z,62.44
2023-05-23T01:11:45.926Z,62.54
2023-05-23T01:14:25.491Z,62.44
2023-05-23T01:17:04.754Z,62.58
2023-05-23T01:20:01.765Z,62.56
2023-05-23T01:23:02.166Z,62.58
2023-05-23T01:25:59.449Z,63.02
2023-05-23T01:28:38.139Z,62.87
2023-05-23T01:31:12.374Z,63.04
2023-05-23T01:33:47.854Z,62.97
2023-05-23T01:36:21.297Z,63.00
2023-05-23T01:38:54.118Z,63.14
2023-05-23T01:41:27.064Z,63.22
2023-05-23T01:44:00.129Z,63.19
2023-05-23T01:46:35.786Z,63.33
2023-05-23T01:49:13.016Z,63.31
2023-05-23T01:51:47.425Z,62.98
2023-05-23T01:54:21.704Z,63.06
2023-05-23T01:56:55.877Z,62.93
2023-05-23T01:59:29.652Z,62.80
2023-05-23T02:02:03.371Z,62.59
2023-05-23T02:04:36.362Z,62.74
2023-05-23T02:07:09.306Z,62.89
2023-05-23T02:09:42.162Z,62.93
2023-05-23T02:12:15.048Z,63.03
2023-05-23T02:14:48.091Z,63.07
2023-05-23T02:17:23.021Z,63.29
2023-05-23T02:19:57.080Z,63.13
2023-05-23T02:22:30.457Z,63.17
2023-05-23T02:25:03.500Z,63.15
2023-05-23T02:27:36.405Z,63.21
2023-05-23T02:30:12.377Z,63.16
2023-05-23T02:32:45.323Z,63.39
2023-05-23T02:35:18.438Z,63.34
2023-05-23T02:37:51.256Z,63.12
2023-05-23T02:40:24.153Z,63.36
2023-05-23T02:42:58.080Z,63.58
2023-05-23T02:45:31.372Z,63.84
2023-05-23T02:48:05.257Z,63.90
2023-05-23T02:50:38.973Z,63.78
2023-05-23T02:53:12.280Z,63.80
2023-05-23T02:55:45.619Z,63.92
2023-05-23T02:58:19.512Z,63.96
2023-05-23T03:00:52.397Z,64.16
2023-05-23T03:03:25.307Z,64.18
2023-05-23T03:05:58.658Z,64.16
2023-05-23T03:08:31.754Z,64.22
2023-05-23T03:11:05.290Z,64.34
2023-05-23T03:13:38.321Z,64.48
2023-05-23T03:16:13.203Z,64.43
2023-05-23T03:18:46.392Z,64.47
2023-05-23T03:21:19.664Z,64.59
2023-05-23T03:23:53.114Z,64.87
2023-05-23T03:26:26.098Z,64.63
2023-05-23T03:28:59.507Z,64.83
2023-05-23T03:31:32.434Z,64.80
2023-05-23T03:34:05.899Z,64.69
2023-05-23T03:36:40.066Z,64.74
2023-05-23T03:39:13.045Z,64.79
2023-05-23T03:41:46.010Z,64.91
2023-05-23T03:44:19.664Z,64.85
2023-05-23T03:46:53.285Z,64.81
2023-05-23T03:49:27.121Z,64.81
2023-05-23T03:52:01.180Z,64.62
2023-05-23T03:54:34.683Z,64.55
2023-05-23T03:57:08.732Z,64.40
2023-05-23T03:59:42.920Z,64.38
2023-05-23T04:02:17.258Z,64.28
2023-05-23T04:04:50.272Z,64.11
2023-05-23T04:07:23.164Z,63.96
2023-05-23T04:09:56.174Z,63.77
2023-05-23T04:12:31.325Z,63.65
2023-05-23T04:15:05.506Z,63.45
2023-05-23T04:17:40.408Z,63.24
2023-05-23T04:20:14.969Z,63.10
2023-05-23T04:22:47.878Z,63.08
2023-05-23T04:25:21.388Z,62.93
2023-05-23T04:28:18.332Z,62.79
2023-05-23T04:30:51.352Z,62.67
2023-05-23T04:33:28.444Z,62.55
2023-05-23T04:36:01.748Z,62.12
2023-05-23T04:38:34.981Z,61.90
2023-05-23T04:41:10.358Z,61.70
2023-05-23T04:44:01.775Z,61.56
2023-05-23T04:46:42.566Z,61.13
2023-05-23T04:49:21.696Z,61.09
2023-05-23T04:51:55.205Z,60.90
2023-05-23T04:54:33.836Z,60.84
2023-05-23T04:57:10.179Z,60.73
2023-05-23T04:59:43.640Z,60.88
2023-05-23T05:02:16.688Z,60.94
2023-05-23T05:04:51.649Z,60.95
2023-05-23T05:07:24.559Z,60.65
2023-05-23T05:10:00.713Z,60.64
2023-05-23T05:12:34.684Z,60.67
2023-05-23T05:15:10.301Z,60.73
2023-05-23T05:17:44.429Z,60.96
2023-05-23T05:20:19.571Z,60.63
2023-05-23T05:22:59.049Z,60.64
2023-05-23T05:25:32.631Z,60.60
2023-05-23T05:28:06.333Z,60.54
2023-05-23T05:30:48.658Z,60.10
2023-05-23T05:33:23.964Z,60.05
2023-05-23T05:36:03.888Z,59.65
2023-05-23T05:38:36.767Z,59.89
2023-05-23T05:41:09.954Z,59.40
2023-05-23T05:43:46.975Z,59.21
2023-05-23T05:46:20.714Z,58.89
2023-05-23T05:48:53.752Z,58.82
2023-05-23T05:51:27.784Z,58.95
2023-05-23T05:54:00.673Z,58.98
2023-05-23T05:56:33.712Z,59.10
2023-05-23T05:59:07.071Z,58.36
2023-05-23T06:01:41.114Z,58.35
2023-05-23T06:04:14.292Z,58.10
2023-05-23T06:06:47.736Z,57.77
2023-05-23T06:09:22.280Z,57.59
2023-05-23T06:11:55.170Z,57.22
2023-05-23T06:14:28.162Z,56.58
2023-05-23T06:17:02.129Z,56.16
2023-05-23T06:19:35.848Z,55.43
2023-05-23T06:22:09.018Z,54.93
2023-05-23T06:24:42.300Z,53.89
2023-05-23T06:27:15.373Z,53.34
2023-05-23T06:29:48.593Z,53.00
2023-05-23T06:32:22.378Z,52.56
2023-05-23T06:34:55.481Z,52.49
2023-05-23T06:37:28.272Z,52.04
2023-05-23T06:40:02.905Z,52.01
2023-05-23T06:42:35.790Z,51.93
2023-05-23T06:45:29.070Z,50.94
2023-05-23T06:48:02.603Z,50.50
2023-05-23T06:50:37.198Z,51.11
2023-05-23T06:53:10.920Z,51.07
2023-05-23T06:55:44.199Z,50.22
2023-05-23T06:58:18.878Z,49.82
2023-05-23T07:00:52.805Z,49.69
2023-05-23T07:03:32.000Z,49.48
2023-05-23T07:06:08.630Z,49.49
2023-05-23T07:08:41.542Z,49.41
2023-05-23T07:11:15.629Z,48.98
2023-05-23T07:13:51.569Z,48.92
2023-05-23T07:16:28.756Z,48.92
2023-05-23T07:19:07.831Z,48.85
2023-05-23T07:21:45.720Z,48.42
2023-05-23T07:24:20.552Z,48.84
2023-05-23T07:26:53.734Z,48.37
2023-05-23T07:29:27.052Z,48.14
2023-05-23T07:32:00.119Z,47.65
2023-05-23T07:34:33.939Z,47.85
2023-05-23T07:37:08.479Z,47.45
2023-05-23T07:39:46.236Z,47.51
2023-05-23T07:42:21.167Z,47.23
2023-05-23T07:44:55.087Z,47.11
2023-05-23T07:47:28.293Z,47.02
2023-05-23T07:50:02.465Z,46.96
2023-05-23T07:52:35.817Z,46.35
2023-05-23T07:55:11.902Z,46.38
2023-05-23T07:57:45.073Z,45.94
2023-05-23T08:00:20.272Z,45.82
2023-05-23T08:02:56.023Z,45.12
2023-05-23T08:05:34.024Z,44.37
2023-05-23T08:08:06.934Z,44.33
2023-05-23T08:10:40.513Z,43.77
2023-05-23T08:13:16.643Z,43.55
2023-05-23T08:16:01.651Z,43.10
2023-05-23T08:18:34.873Z,43.24
2023-05-23T08:21:08.444Z,43.64
2023-05-23T08:23:41.312Z,43.74
2023-05-23T08:26:14.441Z,43.12
2023-05-23T08:28:47.769Z,42.93
2023-05-23T08:31:20.817Z,43.18
2023-05-23T08:33:53.680Z,43.33
2023-05-23T08:36:26.614Z,43.14
2023-05-23T08:38:59.915Z,42.55
2023-05-23T08:41:36.394Z,41.56
2023-05-23T08:44:12.136Z,41.67
2023-05-23T08:46:54.686Z,41.06
2023-05-23T08:49:47.566Z,41.63
2023-05-23T08:52:23.660Z,42.09
2023-05-23T08:54:59.115Z,41.84
2023-05-23T08:57:32.155Z,41.20
2023-05-23T09:00:18.186Z,40.82
2023-05-23T09:02:51.853Z,40.84
2023-05-23T09:05:48.699Z,40.75
2023-05-23T09:08:22.382Z,39.88
2023-05-23T09:10:56.108Z,39.24
2023-05-23T09:13:31.149Z,38.95
2023-05-23T09:16:08.558Z,39.72
2023-05-23T09:18:48.282Z,39.94
2023-05-23T09:21:23.281Z,39.92
2023-05-23T09:24:18.920Z,39.72
2023-05-23T09:26:52.039Z,39.49
2023-05-23T09:29:25.389Z,39.42
2023-05-23T09:32:11.791Z,39.30
2023-05-23T09:34:58.873Z,39.16
2023-05-23T09:37:36.392Z,39.03
2023-05-23T09:40:13.339Z,38.80
2023-05-23T09:42:50.150Z,38.92
2023-05-23T09:45:23.021Z,38.93
2023-05-23T09:47:56.592Z,38.66
2023-05-23T09:50:34.736Z,38.59
2023-05-23T09:53:08.673Z,38.22
2023-05-23T09:55:42.446Z,37.94
2023-05-23T09:58:16.709Z,38.60
2023-05-23T10:00:53.105Z,38.30
2023-05-23T10:03:32.525Z,38.22
2023-05-23T10:06:09.975Z,38.06
2023-05-23T10:08:48.387Z,37.68
2023-05-23T10:11:51.314Z,37.80
2023-05-23T10:14:24.336Z,37.61
2023-05-23T10:17:07.815Z,37.85
2023-05-23T10:19:45.854Z,38.31
2023-05-23T10:22:20.293Z,38.62
2023-05-23T10:24:54.451Z,38.94
2023-05-23T10:27:28.135Z,38.94
2023-05-23T10:30:02.030Z,38.42
2023-05-23T10:32:36.463Z,38.59
2023-05-23T10:35:19.780Z,39.38
2023-05-23T10:38:03.611Z,38.73
2023-05-23T10:40:48.306Z,38.04
2023-05-23T10:43:27.511Z,37.95
2023-05-23T10:46:00.996Z,37.97
2023-05-23T10:48:42.923Z,38.12
2023-05-23T10:51:17.430Z,38.12
2023-05-23T10:53:55.094Z,38.13
2023-05-23T10:56:33.100Z,38.24
2023-05-23T10:59:08.484Z,38.35
2023-05-23T11:01:45.594Z,37.85
2023-05-23T11:04:26.598Z,37.81
2023-05-23T11:07:00.267Z,37.76
2023-05-23T11:09:33.152Z,37.36
2023-05-23T11:12:07.422Z,36.96
2023-05-23T11:14:56.529Z,37.03
2023-05-23T11:17:36.102Z,37.13
2023-05-23T11:20:13.507Z,37.01
2023-05-23T11:22:57.206Z,36.86
2023-05-23T11:25:44.511Z,37.16
2023-05-23T11:28:17.732Z,37.14
2023-05-23T11:30:52.690Z,36.99
2023-05-23T11:33:26.070Z,36.92
2023-05-23T11:36:01.091Z,36.42
2023-05-23T11:38:34.306Z,35.99
2023-05-23T11:41:07.228Z,36.04
2023-05-23T11:43:50.724Z,36.56
2023-05-23T11:46:23.622Z,36.88
2023-05-23T11:48:57.017Z,36.65
2023-05-23T11:51:30.307Z,36.49
2023-05-23T11:54:07.073Z,36.12
2023-05-23T11:56:46.597Z,36.13
2023-05-23T11:59:19.896Z,35.97
2023-05-23T12:01:52.795Z,35.73
2023-05-23T12:04:27.246Z,36.24
2023-05-23T12:07:00.326Z,36.67
2023-05-23T12:09:33.172Z,36.46
2023-05-23T12:12:07.027Z,35.69
2023-05-23T12:14:45.095Z,34.88
2023-05-23T12:17:19.224Z,34.43
2023-05-23T12:19:54.364Z,34.60
2023-05-23T12:22:27.872Z,34.89
2023-05-23T12:25:01.363Z,34.36
2023-05-23T12:27:37.761Z,34.20
2023-05-23T12:30:12.825Z,34.50
2023-05-23T12:32:47.090Z,34.69
2023-05-23T12:35:20.167Z,34.50
2023-05-23T12:37:55.072Z,33.90
2023-05-23T12:40:28.207Z,34.46
2023-05-23T12:43:01.240Z,34.47
2023-05-23T12:45:37.227Z,34.96
2023-05-23T12:48:10.359Z,35.09
2023-05-23T12:50:43.391Z,35.16
2023-05-23T12:53:16.331Z,35.15
2023-05-23T12:55:49.262Z,35.66
2023-05-23T12:58:22.172Z,36.02
2023-05-23T13:00:55.224Z,36.09
2023-05-23T13:03:28.296Z,36.46
2023-05-23T13:06:01.474Z,36.58
2023-05-23T13:08:34.811Z,36.39
2023-05-23T13:11:08.566Z,36.80
2023-05-23T13:13:41.800Z,36.68
2023-05-23T13:16:16.150Z,36.60
2023-05-23T13:18:49.074Z,36.88
2023-05-23T13:21:23.329Z,37.43
2023-05-23T13:23:56.444Z,37.59
2023-05-23T13:26:29.346Z,37.81
2023-05-23T13:29:02.779Z,37.76
2023-05-23T13:31:35.734Z,37.75
2023-05-23T13:34:08.724Z,37.32
2023-05-23T13:36:41.716Z,37.04
2023-05-23T13:39:14.683Z,37.36
2023-05-23T13:41:47.626Z,37.71
2023-05-23T13:44:20.741Z,37.84
2023-05-23T13:46:53.786Z,37.07
2023-05-23T13:49:26.806Z,36.89
2023-05-23T13:51:59.726Z,36.00
2023-05-23T13:54:32.622Z,36.17
2023-05-23T13:57:05.752Z,37.29
2023-05-23T13:59:38.679Z,37.62
2023-05-23T14:02:12.139Z,37.09
2023-05-23T14:04:45.577Z,37.04
2023-05-23T14:07:18.647Z,37.41
2023-05-23T14:09:51.588Z,36.57
2023-05-23T14:12:24.702Z,36.59
2023-05-23T14:14:57.562Z,36.60
2023-05-23T14:17:30.732Z,36.64
2023-05-23T14:20:03.699Z,37.85
2023-05-23T14:22:36.616Z,37.42
2023-05-23T14:25:11.056Z,37.85
2023-05-23T14:27:44.093Z,37.27
2023-05-23T14:30:17.924Z,37.32
2023-05-23T14:32:51.101Z,37.14
2023-05-23T14:35:25.887Z,36.95
2023-05-23T14:37:58.811Z,37.03
2023-05-23T14:40:31.746Z,36.40
2023-05-23T14:43:05.335Z,37.04
2023-05-23T14:45:38.303Z,36.83
2023-05-23T14:48:12.412Z,36.69
2023-05-23T14:50:45.686Z,36.22
2023-05-23T14:53:22.114Z,36.14
2023-05-23T14:55:54.998Z,35.70
2023-05-23T14:58:27.946Z,35.33
2023-05-23T15:01:01.046Z,35.29
2023-05-23T15:03:34.109Z,35.74
2023-05-23T15:06:07.852Z,35.36
2023-05-23T15:08:41.966Z,35.45
2023-05-23T15:11:14.873Z,35.23
2023-05-23T15:13:47.719Z,35.54
2023-05-23T15:16:20.698Z,35.82
2023-05-23T15:18:53.732Z,36.20
2023-05-23T15:21:26.999Z,36.51
2023-05-23T15:24:00.321Z,36.11
2023-05-23T15:26:33.251Z,35.83
2023-05-23T15:29:06.357Z,35.22
2023-05-23T15:31:39.436Z,35.62
2023-05-23T15:34:12.547Z,35.67
2023-05-23T15:36:46.054Z,35.64
2023-05-23T15:39:18.869Z,35.87
2023-05-23T15:41:51.844Z,35.98
2023-05-23T15:44:24.864Z,35.63
2023-05-23T15:46:57.954Z,35.78
2023-05-23T15:49:31.081Z,34.83
2023-05-23T15:52:05.083Z,34.92
2023-05-23T15:54:37.935Z,35.09
2023-05-23T15:57:10.836Z,35.06
2023-05-23T15:59:43.817Z,34.90
2023-05-23T16:02:19.224Z,35.99
2023-05-23T16:04:52.882Z,35.76
2023-05-23T16:07:25.782Z,35.29
2023-05-23T16:09:58.761Z,35.68
2023-05-23T16:12:32.131Z,35.75
2023-05-23T16:15:05.375Z,35.97
2023-05-23T16:17:38.224Z,35.79
2023-05-23T16:20:12.851Z,36.02
2023-05-23T16:22:46.421Z,35.86
2023-05-23T16:25:19.609Z,35.54
2023-05-23T16:27:52.510Z,35.36
2023-05-23T16:30:28.076Z,35.77
2023-05-23T16:33:01.096Z,35.73
2023-05-23T16:35:34.186Z,35.63
2023-05-23T16:38:07.080Z,35.94
2023-05-23T16:40:40.470Z,36.35
2023-05-23T16:43:14.605Z,36.23
2023-05-23T16:45:47.910Z,35.89
2023-05-23T16:48:22.916Z,35.72
2023-05-23T16:50:57.113Z,35.98
2023-05-23T16:53:30.017Z,36.14
2023-05-23T16:56:04.538Z,36.48
2023-05-23T16:58:39.021Z,36.41
2023-05-23T17:01:12.054Z,36.41
2023-05-23T17:03:45.122Z,36.20
2023-05-23T17:06:18.452Z,36.25
2023-05-23T17:08:51.302Z,36.53
2023-05-23T17:11:25.575Z,37.29
2023-05-23T17:13:58.555Z,37.39
2023-05-23T17:16:33.761Z,37.68
2023-05-23T17:19:07.797Z,37.60
2023-05-23T17:21:40.777Z,37.86
2023-05-23T17:24:13.688Z,38.37
2023-05-23T17:26:46.661Z,39.13
2023-05-23T17:29:20.886Z,40.11
2023-05-23T17:31:54.070Z,40.17
2023-05-23T17:34:27.638Z,39.48
2023-05-23T17:37:00.659Z,39.08
2023-05-23T17:39:33.619Z,38.94
2023-05-23T17:42:07.229Z,39.14
2023-05-23T17:44:40.415Z,39.34
2023-05-23T17:47:13.370Z,39.02
2023-05-23T17:49:46.429Z,39.09
2023-05-23T17:52:19.306Z,39.03
2023-05-23T17:54:52.182Z,39.30
2023-05-23T17:57:25.197Z,39.22
2023-05-23T17:59:58.184Z,38.74
2023-05-23T18:02:31.164Z,38.82
2023-05-23T18:05:05.157Z,38.64
2023-05-23T18:07:38.092Z,38.69
2023-05-23T18:10:13.116Z,38.71
2023-05-23T18:12:46.703Z,38.60
2023-05-23T18:15:19.676Z,38.67
2023-05-23T18:17:55.819Z,39.26
2023-05-23T18:20:29.019Z,39.43
2023-05-23T18:23:02.238Z,39.39
2023-05-23T18:25:35.335Z,39.30
2023-05-23T18:28:08.196Z,39.37
2023-05-23T18:30:41.249Z,39.51
2023-05-23T18:33:14.419Z,39.69
2023-05-23T18:35:47.471Z,39.73
2023-05-23T18:38:20.637Z,39.73
2023-05-23T18:40:53.796Z,39.68
2023-05-23T18:43:26.883Z,39.62
2023-05-23T18:45:59.732Z,39.91
2023-05-23T18:48:35.552Z,40.11
2023-05-23T18:51:09.039Z,40.32
2023-05-23T18:53:43.283Z,40.42
2023-05-23T18:56:16.259Z,40.28
2023-05-23T18:58:49.912Z,40.23
2023-05-23T19:01:23.125Z,40.06
2023-05-23T19:03:57.602Z,40.14
2023-05-23T19:06:32.065Z,40.27
2023-05-23T19:09:09.741Z,40.31
2023-05-23T19:11:43.089Z,40.31
2023-05-23T19:14:16.007Z,40.44
2023-05-23T19:16:48.972Z,40.48
2023-05-23T19:19:21.942Z,40.78
2023-05-23T19:21:55.007Z,41.54
2023-05-23T19:24:27.897Z,42.86
2023-05-23T19:27:02.247Z,43.17
2023-05-23T19:29:35.323Z,43.10
2023-05-23T19:32:09.125Z,43.24
2023-05-23T19:34:43.199Z,43.31
2023-05-23T19:37:16.222Z,43.22
2023-05-23T19:39:49.902Z,43.48
2023-05-23T19:42:24.161Z,43.53
2023-05-23T19:44:57.050Z,43.47
2023-05-23T19:47:30.953Z,44.27
2023-05-23T19:50:04.241Z,44.64
2023-05-23T19:52:37.247Z,44.82
2023-05-23T19:55:11.941Z,45.38
2023-05-23T19:57:44.874Z,45.56
2023-05-23T20:00:18.744Z,45.68
2023-05-23T20:02:51.846Z,45.65
2023-05-23T20:05:25.164Z,45.67
2023-05-23T20:07:57.991Z,45.67
2023-05-23T20:10:30.914Z,45.98
2023-05-23T20:13:03.778Z,46.39
2023-05-23T20:15:40.057Z,46.84
2023-05-23T20:18:13.811Z,47.46
2023-05-23T20:20:46.660Z,47.48
2023-05-23T20:23:19.753Z,47.33
2023-05-23T20:25:53.054Z,48.03
2023-05-23T20:28:26.110Z,48.43
2023-05-23T20:30:59.142Z,48.60
2023-05-23T20:33:32.061Z,48.60
2023-05-23T20:36:05.026Z,48.42
2023-05-23T20:38:38.011Z,48.59
2023-05-23T20:41:11.944Z,49.18
2023-05-23T20:43:46.439Z,49.11
2023-05-23T20:46:19.517Z,49.40
2023-05-23T20:48:53.152Z,49.30
2023-05-23T20:51:26.095Z,49.41
2023-05-23T20:53:58.882Z,49.47
2023-05-23T20:56:32.280Z,49.34
2023-05-23T20:59:05.217Z,49.35
2023-05-23T21:01:38.638Z,49.74
2023-05-23T21:04:11.717Z,49.58
2023-05-23T21:06:44.635Z,49.67
2023-05-23T21:09:17.665Z,49.76
2023-05-23T21:11:50.530Z,49.81
2023-05-23T21:14:23.456Z,49.77
2023-05-23T21:16:56.419Z,49.86
2023-05-23T21:19:29.366Z,49.86
2023-05-23T21:22:02.212Z,49.95
2023-05-23T21:24:36.284Z,50.18
2023-05-23T21:27:09.483Z,50.75
2023-05-23T21:29:42.303Z,51.14
2023-05-23T21:32:15.207Z,52.05
2023-05-23T21:34:48.454Z,52.45
2023-05-23T21:37:21.669Z,52.76
2023-05-23T21:39:54.737Z,52.79
2023-05-23T21:42:27.623Z,53.18
2023-05-23T21:45:00.709Z,53.56
2023-05-23T21:47:33.604Z,53.74
2023-05-23T21:50:07.114Z,53.87
2023-05-23T21:52:40.042Z,54.35
2023-05-23T21:55:13.067Z,54.18
2023-05-23T21:57:46.368Z,54.40
2023-05-23T22:00:20.814Z,54.39
2023-05-23T22:02:54.437Z,54.36
2023-05-23T22:05:27.864Z,54.48
2023-05-23T22:08:00.738Z,54.97
2023-05-23T22:10:37.194Z,54.83
2023-05-23T22:13:10.202Z,54.92
2023-05-23T22:15:43.134Z,54.83
2023-05-23T22:18:16.556Z,54.82
2023-05-23T22:20:49.465Z,54.79
2023-05-23T22:23:22.307Z,54.94
2023-05-23T22:25:55.264Z,55.29
2023-05-23T22:28:28.172Z,55.39
2023-05-23T22:31:03.158Z,56.16
2023-05-23T22:33:36.411Z,56.22
2023-05-23T22:36:10.975Z,56.45
2023-05-23T22:38:43.868Z,56.46
2023-05-23T22:41:17.031Z,56.71
2023-05-23T22:43:49.966Z,56.96
2023-05-23T22:46:23.082Z,57.46
2023-05-23T22:48:56.785Z,57.59
2023-05-23T22:51:29.581Z,57.60
2023-05-23T22:54:02.503Z,57.37
2023-05-23T22:56:36.381Z,57.20
2023-05-23T22:59:09.234Z,57.09
2023-05-23T23:01:42.232Z,56.99
2023-05-23T23:04:15.168Z,57.17
2023-05-23T23:06:48.116Z,57.06
2023-05-23T23:09:21.994Z,56.97
2023-05-23T23:11:55.323Z,56.85
2023-05-23T23:14:28.202Z,56.63
2023-05-23T23:17:01.553Z,56.51
2023-05-23T23:19:35.664Z,56.39
2023-05-23T23:22:08.607Z,56.39
2023-05-23T23:24:42.173Z,56.31
2023-05-23T23:27:15.231Z,56.39
2023-05-23T23:29:48.422Z,56.84
2023-05-23T23:32:21.302Z,56.94
2023-05-23T23:34:54.699Z,57.13
2023-05-23T23:37:27.605Z,57.03
2023-05-23T23:40:00.555Z,56.91
2023-05-23T23:42:33.449Z,56.81
2023-05-23T23:45:07.369Z,56.50
2023-05-23T23:47:40.199Z,56.40
2023-05-23T23:50:15.031Z,56.24
2023-05-23T23:52:47.912Z,56.15
2023-05-23T23:55:21.717Z,55.89
2023-05-23T23:57:54.736Z,55.86
